Latest Weather Observations for Wilcannia Airport

IDN60801

Issued at 4:05 pm EST Thursday 21 August 2014 (issued every 30 minutes, with the page automatically refreshed every 10 minutes)

About weather observations | Map of weather stations | Latest weather observations for NSW | Other Formats
Station Details ID: 046012 Name: WILCANNIA AERODROME AWS Lat: -31.52 Lon: 143.38 Height: 94.3 m
Data from the previous 72 hours. | See also: Recent months for locations in New South Wales
Date/Time
EST
Temp
°C
App
Temp
°C
Dew
Point
Rel
Hum
%
Delta-T
°C
Wind Press
QNH
hPa
Press
MSL
hPa
Rain
since 9 am
mm
Dir
 
Spd
km/h
Gust
km/h
Spd
kts
Gust
kts
21/04:00pm 19.5 14.1 1.5 30 8.2 ESE 19 26 10 14 1022.5 1022.6 0.0
21/03:30pm 19.6 13.7 1.6 30 8.2 SSE 22 26 12 14 1022.6 - 0.0
21/03:00pm 19.9 14.9 1.4 29 8.4 E 17 28 9 15 1022.6 1022.7 0.0
21/02:30pm 19.8 14.7 0.8 28 8.6 ESE 17 30 9 16 1022.8 - 0.0
21/02:00pm 20.0 15.0 1.4 29 8.4 E 17 24 9 13 1023.0 1023.1 0.0
21/01:30pm 19.4 14.2 2.3 32 7.9 E 19 30 10 16 1023.5 - 0.0
21/01:00pm 19.2 13.9 1.7 31 7.9 ESE 19 30 10 16 1024.0 1024.0 0.0
21/12:30pm 18.6 12.7 2.0 33 7.6 ESE 22 30 12 16 1024.6 - 0.0
21/12:00pm 18.6 14.1 2.4 34 7.4 E 15 24 8 13 1025.1 1025.1 0.0
21/11:30am 18.5 14.4 2.4 34 7.4 E 13 20 7 11 1025.5 - 0.0
21/11:00am 17.4 13.2 3.7 40 6.4 E 15 20 8 11 1025.9 1025.9 0.0
21/10:30am 16.8 13.2 5.1 46 5.6 ESE 13 20 7 11 1026.2 - 0.0
21/10:00am 15.7 11.8 5.3 50 4.9 ESE 15 20 8 11 1026.2 1026.2 0.0
21/09:30am 15.0 10.6 5.0 51 4.7 E 17 22 9 12 1026.3 - 0.0
21/09:00am 13.8 10.0 5.7 58 3.8 ESE 15 20 8 11 1026.2 1026.2 0.2
21/08:30am 12.3 8.9 5.7 64 3.1 ESE 13 19 7 10 1026.0 - 0.2
21/08:00am 10.7 8.3 7.0 78 1.8 ESE 9 13 5 7 1025.8 1025.8 0.2
21/07:30am 8.1 5.4 5.6 84 1.1 E 9 11 5 6 1025.6 - 0.2
21/07:00am 6.5 3.1 4.2 85 1.0 ESE 11 11 6 6 1025.4 1025.4 0.2
21/06:30am 6.5 3.1 4.2 85 1.0 ESE 11 13 6 7 1025.1 - 0.2
21/06:00am 7.2 3.2 4.9 85 1.0 ESE 15 17 8 9 1024.8 1024.8 0.2
21/05:30am 7.7 3.8 5.3 85 1.1 ESE 15 17 8 9 1024.5 - 0.2
21/05:00am 7.0 3.4 5.2 88 0.8 ESE 13 13 7 7 1024.5 1024.5 0.2
21/04:30am 7.1 4.2 4.9 86 1.0 ESE 9 13 5 7 1024.4 - 0.2
21/04:00am 8.0 5.2 5.1 82 1.3 ESE 9 11 5 6 1024.1 1024.1 0.2
21/03:30am 9.0 5.6 5.9 81 1.4 ESE 13 17 7 9 1024.0 - 0.2
21/03:00am 10.1 6.4 6.3 77 1.8 ESE 15 19 8 10 1023.8 1023.9 0.2
21/02:30am 10.2 7.0 6.7 79 1.7 SE 13 17 7 9 1023.8 - 0.2
21/02:00am 10.6 7.0 6.9 78 1.7 SSE 15 17 8 9 1023.8 1023.9 0.2
21/01:30am 11.2 7.7 7.1 76 2.0 SSE 15 17 8 9 1023.8 - 0.2
21/01:00am 11.5 8.4 7.2 75 2.1 SE 13 17 7 9 1024.0 1024.0 0.2
21/12:30am 12.0 8.9 7.1 72 2.4 SSE 13 17 7 9 1024.0 - 0.2
21/12:00am 13.0 9.9 7.2 68 2.8 SSE 13 19 7 10 1024.1 1024.1 0.2
 
Date/Time
EST
Temp
°C
App
Temp
°C
Dew
Point
Rel
Hum
%
Delta-T
°C
Wind Press
QNH
hPa
Press
MSL
hPa
Rain
since 9 am
mm
Dir
 
Spd
km/h
Gust
km/h
Spd
kts
Gust
kts
20/11:30pm 13.6 10.1 7.2 65 3.1 SSE 15 20 8 11 1024.1 - 0.2
20/11:00pm 13.4 10.3 7.4 67 2.9 SSE 13 17 7 9 1024.2 1024.2 0.2
20/10:30pm 13.0 10.2 7.0 67 2.9 SSE 11 13 6 7 1024.2 - 0.2
20/10:00pm 12.5 10.4 6.8 68 2.7 SSE 7 11 4 6 1024.2 1024.2 0.2
20/09:30pm 12.4 9.6 6.9 69 2.7 S 11 13 6 7 1024.0 - 0.2
20/09:00pm 12.3 9.9 6.8 69 2.6 SSE 9 11 5 6 1023.8 1023.9 0.2
20/08:30pm 12.8 9.6 6.8 67 2.9 S 13 13 7 7 1023.6 - 0.2
20/08:00pm 13.4 10.5 6.7 64 3.2 S 11 13 6 7 1023.3 1023.4 0.2
20/07:30pm 14.2 11.0 7.0 62 3.5 S 13 13 7 7 1023.1 - 0.2
20/07:00pm 14.5 11.4 7.3 62 3.5 S 13 13 7 7 1022.8 1022.9 0.2
20/06:30pm 15.3 12.5 6.8 57 4.2 S 11 13 6 7 1022.6 - 0.2
20/06:00pm 16.7 13.8 6.5 51 5.0 S 11 13 6 7 1022.3 1022.4 0.2
20/05:30pm 17.7 14.4 6.3 47 5.6 S 13 17 7 9 1022.1 - 0.2
20/05:00pm 19.0 14.7 5.1 40 6.7 S 17 20 9 11 1021.9 1022.0 0.2
20/04:30pm 19.9 17.1 5.2 38 7.2 S 9 17 5 9 1021.6 - 0.2
20/04:00pm 19.6 15.4 5.6 40 6.9 S 17 22 9 12 1021.7 1021.8 0.2
20/03:30pm 20.0 17.7 5.6 39 7.1 NE 7 9 4 5 1021.8 - 0.2
20/03:00pm 19.1 16.0 5.6 41 6.6 SSW 11 17 6 9 1022.0 1022.1 0.2
20/02:30pm 20.9 18.3 6.1 38 7.5 WNW 9 13 5 7 1022.0 - 0.2
20/02:00pm 20.6 18.1 5.0 36 7.6 NW 7 9 4 5 1022.3 1022.4 0.2
20/01:30pm 18.5 16.4 6.0 44 6.2 NW 6 9 3 5 1022.6 - 0.2
20/01:00pm 20.1 17.3 6.8 42 6.7 NNE 11 17 6 9 1023.1 1023.2 0.2
20/12:30pm 19.4 17.1 7.5 46 6.1 NE 9 15 5 8 1023.5 - 0.2
20/12:00pm 18.9 16.7 8.0 49 5.6 N 9 15 5 8 1024.1 1024.1 0.2
20/11:30am 18.4 16.4 8.7 53 5.1 ENE 9 13 5 7 1024.5 - 0.2
20/11:00am 17.4 15.6 9.3 59 4.2 ENE 9 15 5 8 1024.6 1024.6 0.2
20/10:30am 16.3 14.7 8.8 61 3.9 ESE 7 11 4 6 1024.7 - 0.2
20/10:00am 14.7 13.1 8.6 67 3.1 E 7 13 4 7 1024.7 1024.7 0.2
20/09:30am 12.8 11.2 8.9 77 2.0 SSE 7 11 4 6 1024.7 - 0.0
20/09:00am 11.3 9.8 9.0 86 1.1 SSE 7 11 4 6 1024.6 1024.6 0.0
20/08:30am 9.1 7.4 8.2 94 0.4 S 7 9 4 5 1024.4 - 0.0
20/08:00am 7.6 5.8 7.0 96 0.3 SW 6 9 3 5 1024.2 1024.2 0.0
20/07:30am 5.8 3.0 5.2 96 0.3 WSW 9 9 5 5 1023.7 - 0.0
20/07:00am 5.0 2.0 4.3 95 0.3 WSW 9 11 5 6 1023.3 1023.4 0.0
20/06:30am 5.2 1.9 4.5 95 0.3 WSW 11 13 6 7 1023.0 - 0.0
20/06:00am 5.4 2.1 4.7 95 0.3 WSW 11 11 6 6 1022.7 1022.8 0.0
20/05:30am 5.7 2.1 5.0 95 0.3 WSW 13 13 7 7 1022.6 - 0.0
20/05:00am 5.9 2.7 5.2 95 0.3 WSW 11 13 6 7 1022.4 1022.5 0.0
20/04:30am 5.6 2.7 4.7 94 0.4 WSW 9 11 5 6 1022.4 - 0.0
20/04:00am 6.1 3.0 5.4 95 0.3 WSW 11 11 6 6 1022.4 1022.5 0.0
20/03:30am 6.1 2.9 5.2 94 0.4 SW 11 13 6 7 1022.2 - 0.0
20/03:00am 6.4 3.3 5.5 94 0.4 SW 11 13 6 7 1022.2 1022.3 0.0
20/02:30am 6.3 3.1 5.3 93 0.4 SW 11 13 6 7 1022.3 - 0.0
20/02:00am 6.8 3.7 5.7 93 0.5 SW 11 13 6 7 1022.4 1022.5 0.0
20/01:30am 7.1 4.1 6.0 93 0.5 WSW 11 13 6 7 1022.5 - 0.0
20/01:00am 7.3 4.0 6.2 93 0.5 WSW 13 13 7 7 1022.4 1022.5 0.0
20/12:30am 7.5 4.2 6.4 93 0.5 WSW 13 13 7 7 1022.4 - 0.0
20/12:00am 7.4 4.4 6.2 92 0.5 WSW 11 11 6 6 1022.5 1022.6 0.0
 
Date/Time
EST
Temp
°C
App
Temp
°C
Dew
Point
Rel
Hum
%
Delta-T
°C
Wind Press
QNH
hPa
Press
MSL
hPa
Rain
since 9 am
mm
Dir
 
Spd
km/h
Gust
km/h
Spd
kts
Gust
kts
19/11:30pm 7.6 4.6 6.2 91 0.6 WSW 11 11 6 6 1022.4 - 0.0
19/11:00pm 8.2 5.0 6.8 91 0.6 SW 13 13 7 7 1022.3 1022.4 0.0
19/10:30pm 8.4 5.6 6.9 90 0.7 SW 11 13 6 7 1022.4 - 0.0
19/10:00pm 8.7 6.0 7.2 90 0.7 WSW 11 11 6 6 1022.4 1022.5 0.0
19/09:30pm 8.9 6.5 7.0 88 0.9 WSW 9 11 5 6 1022.4 - 0.0
19/09:00pm 9.4 6.7 7.3 87 1.0 SW 11 13 6 7 1022.3 1022.4 0.0
19/08:30pm 9.5 6.4 7.3 86 1.0 SW 13 15 7 8 1022.2 - 0.0
19/08:00pm 10.1 7.5 7.7 85 1.2 W 11 13 6 7 1022.2 1022.3 0.0
19/07:30pm 10.8 8.1 7.5 80 1.6 SW 11 13 6 7 1022.1 - 0.0
19/07:00pm 11.3 8.6 7.2 76 2.0 SW 11 13 6 7 1021.8 1021.9 0.0
19/06:30pm 12.7 10.1 7.6 71 2.5 SW 11 13 6 7 1021.7 - 0.0
19/06:00pm 14.0 10.9 7.3 64 3.3 SSW 13 17 7 9 1021.4 1021.5 0.0
19/05:30pm 15.5 11.6 7.3 58 4.1 SSW 17 22 9 12 1021.2 - 0.0
19/05:00pm 16.1 12.2 7.3 56 4.4 SSW 17 22 9 12 1021.1 1021.2 0.0
19/04:30pm 16.4 12.1 7.1 54 4.6 S 19 26 10 14 1021.0 - 0.0
19/04:00pm 16.6 12.1 7.0 53 4.8 S 20 26 11 14 1020.7 1020.8 0.0
19/03:30pm 16.6 12.7 7.3 54 4.7 SSW 17 24 9 13 1020.7 - 0.0
19/03:00pm 17.3 13.5 7.6 53 4.9 SSW 17 28 9 15 1020.7 1020.8 0.0
19/02:30pm 16.8 12.4 7.4 54 4.7 SSW 20 30 11 16 1020.7 - 0.0
19/02:00pm 16.9 12.9 8.1 56 4.5 SW 19 28 10 15 1020.6 1020.7 0.0
19/01:30pm 16.3 11.9 7.5 56 4.4 SW 20 30 11 16 1020.9 - 0.0
19/01:00pm 16.1 11.7 7.3 56 4.4 SW 20 32 11 17 1021.1 1021.2 0.0
19/12:30pm 15.4 10.5 6.7 56 4.3 SSW 22 32 12 17 1021.5 - 0.0
19/12:00pm 15.2 10.6 6.7 57 4.1 SW 20 30 11 16 1021.9 1022.0 0.0
19/11:30am 14.3 9.8 6.9 61 3.6 SSW 20 28 11 15 1022.3 - 0.0
19/11:00am 13.3 8.3 6.4 63 3.3 SW 22 32 12 17 1022.5 1022.6 0.0
19/10:30am 12.7 8.3 6.5 66 3.0 SW 19 24 10 13 1022.7 - 0.0
19/10:00am 11.3 6.5 5.8 69 2.6 SSW 20 28 11 15 1022.9 1023.0 0.0
19/09:30am 10.5 5.7 5.7 72 2.2 SW 20 26 11 14 1022.8 - 0.0
19/09:00am 9.0 4.0 4.8 75 1.9 SSW 20 26 11 14 1022.8 1022.9 0.0
19/08:30am 7.5 2.4 4.3 80 1.4 SW 20 30 11 16 1022.7 - 0.0
19/08:00am 6.1 2.0 4.1 87 0.9 WSW 15 20 8 11 1022.5 1022.6 0.0
19/07:30am 4.7 0.8 3.4 91 0.5 WSW 13 17 7 9 1022.1 - 0.0
19/07:00am 4.4 0.4 3.1 91 0.5 W 13 17 7 9 1021.7 1021.8 0.0
19/06:30am 4.5 0.2 3.2 91 0.5 W 15 17 8 9 1021.6 - 0.0
19/06:00am 4.5 0.6 3.2 91 0.5 W 13 15 7 8 1021.3 1021.4 0.0
19/05:30am 4.7 0.8 3.2 90 0.6 WSW 13 15 7 8 1021.0 - 0.0
19/05:00am 4.8 0.8 3.1 89 0.7 WSW 13 15 7 8 1020.9 1021.0 0.0
19/04:30am 5.1 1.2 3.4 89 0.7 WSW 13 17 7 9 1020.6 - 0.0
19/04:00am 5.3 1.4 3.5 88 0.8 WSW 13 17 7 9 1020.5 1020.6 0.0
19/03:30am 5.5 1.6 3.5 87 0.8 WSW 13 15 7 8 1020.6 - 0.0
19/03:00am 6.1 2.3 3.8 85 1.0 WSW 13 17 7 9 1020.8 1020.9 0.0
19/02:30am 6.5 2.7 3.8 83 1.2 WSW 13 15 7 8 1020.8 - 0.0
19/02:00am 7.4 3.3 4.2 80 1.4 WSW 15 19 8 10 1020.8 1020.9 0.0
19/01:30am 7.9 3.8 4.1 77 1.7 SW 15 19 8 10 1020.8 - 0.0
19/01:00am 8.5 4.0 4.3 75 1.8 SW 17 22 9 12 1020.8 1020.9 0.0
19/12:30am 9.1 4.0 4.1 71 2.2 SW 20 26 11 14 1020.9 - 0.0
19/12:00am 9.4 4.5 4.2 70 2.3 SW 19 26 10 14 1020.9 1021.0 0.0
 
Date/Time
EST
Temp
°C
App
Temp
°C
Dew
Point
Rel
Hum
%
Delta-T
°C
Wind Press
QNH
hPa
Press
MSL
hPa
Rain
since 9 am
mm
Dir
 
Spd
km/h
Gust
km/h
Spd
kts
Gust
kts
18/11:30pm 9.7 4.9 4.5 70 2.3 SW 19 24 10 13 1020.8 - 0.0
18/11:00pm 10.1 5.3 4.7 69 2.4 SW 19 22 10 12 1020.7 1020.8 0.0
18/10:30pm 10.4 6.0 5.0 69 2.5 WSW 17 24 9 13 1020.8 - 0.0
18/10:00pm 10.8 6.4 4.9 67 2.7 WSW 17 22 9 12 1020.8 1020.9 0.0
18/09:30pm 10.9 6.1 4.8 66 2.8 WSW 19 26 10 14 1020.7 - 0.0
18/09:00pm 10.8 6.6 5.6 70 2.4 WSW 17 22 9 12 1020.6 1020.7 0.0
18/08:30pm 10.5 6.7 5.7 72 2.2 WSW 15 19 8 10 1020.3 - 0.0
18/08:00pm 10.1 6.6 5.5 73 2.1 W 13 17 7 9 1020.0 1020.0 0.0
18/07:30pm 10.6 6.7 5.4 70 2.4 WSW 15 19 8 10 1019.7 - 0.0
18/07:00pm 11.6 7.3 5.3 65 2.9 WSW 17 20 9 11 1019.4 1019.4 0.0
18/06:30pm 12.4 8.1 5.1 61 3.4 SW 17 22 9 12 1019.0 - 0.0
18/06:00pm 13.4 8.1 5.1 57 3.9 SW 22 28 12 15 1018.6 1018.6 0.0
18/05:30pm 14.5 8.8 5.0 53 4.5 SW 24 32 13 17 1018.3 - 0.0
18/05:00pm 15.2 9.2 5.1 51 4.8 SW 26 35 14 19 1018.0 1018.0 0.0
18/04:30pm 15.5 9.9 5.4 51 4.8 SSW 24 32 13 17 1017.7 - 0.0

Other Formats:

Comma delimited format used in spreadsheet applications
http://www.bom.gov.au/fwo/IDN60801/IDN60801.95695.axf

JavaScript Object Notation format (JSON) in row-major order
http://www.bom.gov.au/fwo/IDN60801/IDN60801.95695.json